Time;durP1;ratioP1;P1;durP2;ratioP2;P2;SDS_P1;SDS_P2;PMS_P1;PMS_P2;Temp;Humidity;BMP_temperature;BMP_pressure;BME280_temperature;BME280_humidity;BME280_pressure;Samples;Min_cycle;Max_cycle;Signal;HPM_P1;HPM_P2
2022/11/19 00:00:40;;;;;;;30.33;19.38;;;;;;;2.75;73.54;98212.03;5107308;28;20349;-73
2022/11/19 00:03:07;;;;;;;24.63;17.50;;;;;;;2.73;73.46;98217.34;5108471;28;20047;-73
2022/11/19 00:05:40;;;;;;;25.75;17.73;;;;;;;2.71;72.92;98224.41;5106483;28;20036;-74
2022/11/19 00:08:07;;;;;;;28.55;19.73;;;;;;;2.72;73.41;98241.78;5107155;28;20047;-74
2022/11/19 00:10:34;;;;;;;27.80;19.27;;;;;;;1.49;73.60;98040.28;5107076;28;20043;-74
2022/11/19 00:13:00;;;;;;;29.60;21.10;;;;;;;2.71;73.65;98244.47;5108461;28;20044;-74
2022/11/19 00:15:27;;;;;;;27.98;19.23;;;;;;;2.70;73.61;98261.09;5108427;28;20145;-74
2022/11/19 00:17:54;;;;;;;27.92;19.13;;;;;;;1.68;73.59;98134.47;5107042;28;20036;-73
2022/11/19 00:20:21;;;;;;;31.65;21.50;;;;;;;2.67;73.93;98283.00;5106919;28;20200;-74
2022/11/19 00:22:55;;;;;;;27.33;19.70;;;;;;;2.66;73.33;98285.66;5107149;28;20308;-74
2022/11/19 00:25:24;;;;;;;26.83;19.88;;;;;;;2.65;74.07;98276.13;5107186;28;20036;-74
2022/11/19 00:27:51;;;;;;;28.70;20.83;;;;;;;2.64;74.18;98283.13;5106840;28;20054;-74
2022/11/19 00:30:18;;;;;;;33.20;22.08;;;;;;;2.41;74.25;98241.34;5106700;28;20043;-74
2022/11/19 00:32:46;;;;;;;30.60;21.88;;;;;;;2.63;74.70;98288.41;5107118;28;20039;-73
2022/11/19 00:35:13;;;;;;;29.85;19.95;;;;;;;2.62;74.73;98286.72;5107993;28;20048;-73
2022/11/19 00:37:40;;;;;;;30.23;20.42;;;;;;;2.61;74.73;98291.09;5106808;28;20172;-73
2022/11/19 00:40:10;;;;;;;29.60;20.83;;;;;;;2.61;74.47;98287.63;5107621;28;20052;-74
2022/11/19 00:42:37;;;;;;;31.45;21.98;;;;;;;1.73;74.48;98151.66;5107353;28;20044;-73
2022/11/19 00:45:05;;;;;;;34.55;22.52;;;;;;;2.59;74.51;98292.91;5107707;28;20239;-73
2022/11/19 00:47:32;;;;;;;32.95;21.23;;;;;;;2.57;74.83;98301.72;5106691;28;20036;-74
2022/11/19 00:49:59;;;;;;;35.75;24.13;;;;;;;2.56;74.54;98308.72;5106171;28;20060;-74
2022/11/19 00:52:26;;;;;;;34.75;22.52;;;;;;;1.46;74.39;98130.03;5106464;28;20097;-74
2022/11/19 00:54:53;;;;;;;32.30;23.60;;;;;;;2.51;74.48;98310.69;5107062;28;20044;-73
2022/11/19 00:57:21;;;;;;;35.40;23.02;;;;;;;2.42;74.58;98305.81;5106090;28;20044;-73
2022/11/19 00:59:48;;;;;;;31.83;22.05;;;;;;;2.49;74.70;98315.97;5107257;28;20056;-72
2022/11/19 01:02:14;;;;;;;34.47;22.15;;;;;;;2.47;74.40;98320.41;5106458;28;20089;-73
2022/11/19 01:04:41;;;;;;;35.75;23.58;;;;;;;2.45;74.47;98327.47;5107091;28;20040;-73
2022/11/19 01:07:08;;;;;;;35.45;22.00;;;;;;;2.45;74.57;98310.91;5106771;28;20181;-73
2022/11/19 01:09:34;;;;;;;31.58;22.55;;;;;;;2.43;74.37;98317.97;5107081;28;20051;-73
2022/11/19 01:12:01;;;;;;;35.83;22.67;;;;;;;2.40;74.53;98328.53;5107261;28;20040;-73
2022/11/19 01:14:29;;;;;;;32.88;21.10;;;;;;;2.39;74.41;98338.16;5106980;28;20207;-72
2022/11/19 01:16:56;;;;;;;32.00;22.85;;;;;;;1.89;74.57;98262.50;5106547;28;20051;-73
2022/11/19 01:19:23;;;;;;;36.00;22.88;;;;;;;2.38;74.62;98335.59;5106606;28;20040;-72
2022/11/19 01:21:50;;;;;;;30.95;22.13;;;;;;;2.35;74.64;98333.94;5105717;28;20044;-73
2022/11/19 01:24:17;;;;;;;33.00;21.75;;;;;;;2.20;74.52;98319.69;5106765;28;20161;-73
2022/11/19 01:26:43;;;;;;;33.17;21.27;;;;;;;2.12;74.56;98311.28;5105545;28;20043;-73
2022/11/19 01:29:10;;;;;;;32.10;24.50;;;;;;;2.33;74.25;98351.47;5106681;28;20052;-73
2022/11/19 01:31:38;;;;;;;33.03;22.13;;;;;;;2.32;74.45;98361.97;5106633;28;20048;-73
2022/11/19 01:34:05;;;;;;;32.67;21.92;;;;;;;2.30;74.52;98369.88;5106606;28;20043;-73
2022/11/19 01:36:32;;;;;;;32.08;21.75;;;;;;;2.30;74.54;98369.03;5106546;28;20059;-73
2022/11/19 01:38:59;;;;;;;34.22;22.17;;;;;;;2.22;74.50;98364.94;5105669;28;20036;-73
2022/11/19 01:41:27;;;;;;;36.53;22.23;;;;;;;1.06;74.22;98190.69;5106882;28;20040;-72
2022/11/19 01:43:57;;;;;;;33.97;22.80;;;;;;;1.58;74.47;98277.56;5106473;28;20055;-72
2022/11/19 01:46:27;;;;;;;31.30;21.88;;;;;;;2.25;74.30;98390.13;5106132;28;20036;-73
2022/11/19 01:48:58;;;;;;;31.70;22.52;;;;;;;2.00;74.07;98350.09;5106114;28;20093;-72
2022/11/19 01:51:29;;;;;;;31.75;22.15;;;;;;;2.20;74.35;98389.44;5105213;28;20060;-72
2022/11/19 01:53:59;;;;;;;32.08;21.33;;;;;;;2.20;74.36;98397.28;5106440;28;20233;-72
2022/11/19 01:56:27;;;;;;;33.05;21.85;;;;;;;1.65;74.44;98328.72;5106436;28;20044;-73
2022/11/19 01:58:59;;;;;;;31.73;22.23;;;;;;;2.15;74.43;98391.34;5106469;28;20048;-73
2022/11/19 02:01:26;;;;;;;30.92;20.05;;;;;;;2.15;74.44;98389.59;5105911;28;20071;-72
2022/11/19 02:03:55;;;;;;;31.58;21.75;;;;;;;2.15;74.52;98391.34;5105042;28;20042;-72
2022/11/19 02:06:22;;;;;;;32.40;21.08;;;;;;;2.12;74.37;98386.25;5106378;28;20050;-72
2022/11/19 02:08:51;;;;;;;31.85;20.25;;;;;;;2.10;74.52;98399.38;5106091;28;20054;-72
2022/11/19 02:11:43;;;;;;;31.45;19.98;;;;;;;2.06;73.69;98395.16;5104986;28;20044;-73
2022/11/19 02:14:28;;;;;;;31.83;21.25;;;;;;;2.05;74.18;98405.66;5106326;28;20197;-73
2022/11/19 02:17:06;;;;;;;31.73;20.77;;;;;;;2.02;74.44;98417.09;5106060;28;20032;-73
2022/11/19 02:20:10;;;;;;;33.03;20.70;;;;;;;2.01;74.01;98418.00;5105805;28;20093;-73
2022/11/19 02:22:59;;;;;;;34.60;21.63;;;;;;;1.99;74.05;98414.59;5074258;28;20105;-74
2022/11/19 02:25:40;;;;;;;33.85;22.42;;;;;;;1.96;74.09;98422.53;5106410;28;20051;-73
2022/11/19 02:28:27;;;;;;;36.78;22.95;;;;;;;1.53;73.40;98350.84;5105345;28;20044;-73
2022/11/19 02:31:00;;;;;;;31.05;20.60;;;;;;;1.49;74.30;98364.06;5109780;28;20074;-73
2022/11/19 02:33:31;;;;;;;32.92;22.27;;;;;;;1.92;74.30;98434.00;5110247;28;20040;-73
2022/11/19 02:36:06;;;;;;;36.95;24.85;;;;;;;1.66;74.42;98387.03;5108978;28;20036;-73
2022/11/19 02:38:39;;;;;;;37.30;22.65;;;;;;;1.33;74.06;98348.06;5109543;28;20040;-73
2022/11/19 02:44:57;;;;;;;37.35;22.80;;;;;;;1.87;74.40;98433.31;5108817;28;20043;-73
2022/11/19 02:46:52;;;;;;;32.70;22.58;;;;;;;1.49;74.40;98390.19;5109096;28;20036;-73
2022/11/19 02:49:21;;;;;;;36.53;22.65;;;;;;;1.84;74.33;98442.09;5109665;28;20044;-73
2022/11/19 02:51:49;;;;;;;32.15;21.10;;;;;;;1.86;74.47;98450.75;5108842;28;20040;-73
2022/11/19 02:54:16;;;;;;;39.58;25.67;;;;;;;1.86;74.34;98461.19;5109438;28;20047;-73
2022/11/19 02:56:50;;;;;;;34.17;22.65;;;;;;;1.84;74.17;98456.94;5109996;28;20280;-73
2022/11/19 03:04:53;;;;;;;37.58;24.92;;;;;;;1.79;74.25;98464.06;5109202;28;20111;-73
2022/11/19 03:07:21;;;;;;;40.80;26.45;;;;;;;1.54;74.17;98423.06;5108587;28;20295;-73
2022/11/19 03:09:54;;;;;;;39.28;25.27;;;;;;;1.65;74.31;98432.34;5109527;28;20040;-73
2022/11/19 03:12:25;;;;;;;41.28;26.83;;;;;;;1.55;74.27;98414.34;5110110;28;20060;-73
2022/11/19 03:18:00;;;;;;;39.55;24.77;;;;;;;1.76;73.98;98479.84;5110087;28;20375;-73
2022/11/19 03:20:32;;;;;;;39.80;24.20;;;;;;;1.74;74.49;98485.13;5109168;28;20044;-74
2022/11/19 03:23:04;;;;;;;39.97;24.67;;;;;;;1.75;74.54;98481.59;5108859;28;20211;-74
2022/11/19 03:25:35;;;;;;;38.47;25.60;;;;;;;1.74;74.33;98499.94;5108111;28;20036;-74
2022/11/19 03:28:07;;;;;;;32.72;22.55;;;;;;;1.74;74.71;98511.25;5108852;28;20044;-73
2022/11/19 03:30:34;;;;;;;36.50;24.25;;;;;;;1.73;74.58;98520.00;5110109;28;20093;-73
2022/11/19 03:33:06;;;;;;;35.22;23.83;;;;;;;1.33;74.40;98443.81;5108835;28;20044;-73
2022/11/19 03:35:39;;;;;;;39.92;23.00;;;;;;;1.74;74.49;98513.00;5109388;28;20055;-73
2022/11/19 03:38:11;;;;;;;36.30;24.27;;;;;;;1.73;74.61;98513.91;5109182;28;20081;-74
2022/11/19 03:40:40;;;;;;;37.58;22.40;;;;;;;1.70;74.30;98517.47;5108816;28;20067;-72
2022/11/19 03:43:09;;;;;;;38.30;24.52;;;;;;;1.50;74.39;98485.91;5107865;28;20040;-72
2022/11/19 03:45:43;;;;;;;35.50;24.10;;;;;;;1.69;74.34;98515.75;5108247;28;20035;-72
2022/11/19 03:48:12;;;;;;;39.60;24.73;;;;;;;1.67;74.18;98525.41;5091789;28;20238;-72
2022/11/19 03:50:47;;;;;;;39.28;24.38;;;;;;;1.67;73.98;98525.41;5107347;28;20052;-73
2022/11/19 03:53:14;;;;;;;40.08;25.08;;;;;;;1.66;74.24;98522.84;5107561;28;20040;-73
2022/11/19 03:55:46;;;;;;;37.88;23.08;;;;;;;1.19;74.25;98465.13;5107554;28;20031;-73
2022/11/19 03:58:13;;;;;;;40.08;25.35;;;;;;;1.63;74.35;98533.41;5108610;28;20048;-73
2022/11/19 04:00:40;;;;;;;42.90;25.38;;;;;;;1.63;74.21;98541.22;5075332;28;20040;-74
2022/11/19 04:03:06;;;;;;;40.65;26.25;;;;;;;1.62;74.14;98543.00;5109846;28;20044;-73
2022/11/19 04:05:35;;;;;;;37.88;23.92;;;;;;;1.61;74.13;98546.50;5108757;28;20035;-73
2022/11/19 04:08:01;;;;;;;37.90;24.95;;;;;;;0.82;74.06;98416.72;5110050;28;20051;-72
2022/11/19 04:10:28;;;;;;;39.28;23.83;;;;;;;1.59;74.17;98554.34;5108704;28;20318;-72
2022/11/19 04:12:55;;;;;;;37.80;24.13;;;;;;;1.56;74.21;98545.75;5109927;28;20040;-73
2022/11/19 04:15:22;;;;;;;36.00;23.00;;;;;;;1.55;74.07;98554.50;5109845;28;20039;-73
2022/11/19 04:17:49;;;;;;;38.22;24.48;;;;;;;1.54;74.16;98565.84;5109425;28;20047;-73
2022/11/19 04:20:16;;;;;;;42.22;27.60;;;;;;;1.52;74.00;98571.13;5110051;28;20051;-73
2022/11/19 04:22:45;;;;;;;36.20;23.30;;;;;;;1.50;73.94;98570.31;5109403;28;20052;-73
2022/11/19 04:25:11;;;;;;;40.65;26.60;;;;;;;1.50;74.23;98572.06;5109783;28;20044;-73
2022/11/19 04:27:38;;;;;;;41.47;23.75;;;;;;;0.93;73.90;98484.22;5108154;28;20299;-71
2022/11/19 04:30:06;;;;;;;40.42;25.55;;;;;;;0.19;73.72;98369.97;5108902;28;20219;-72
2022/11/19 04:32:33;;;;;;;40.22;23.20;;;;;;;1.07;73.99;98513.34;5090482;28;20054;-73
2022/11/19 04:35:00;;;;;;;38.60;24.05;;;;;;;1.48;73.52;98594.75;5108010;28;20063;-73
2022/11/19 04:37:27;;;;;;;37.40;23.75;;;;;;;0.56;73.56;98442.72;5107359;28;20308;-73
2022/11/19 04:39:55;;;;;;;39.38;24.08;;;;;;;1.40;73.59;98592.38;5107290;28;20044;-72
2022/11/19 04:42:21;;;;;;;36.03;23.30;;;;;;;1.48;73.82;98606.06;5109113;28;20287;-73
2022/11/19 04:44:48;;;;;;;39.17;24.13;;;;;;;1.46;73.46;98613.09;5108927;28;20219;-73
2022/11/19 04:47:15;;;;;;;35.33;22.25;;;;;;;1.48;73.48;98615.66;5107861;28;20044;-73
2022/11/19 04:49:42;;;;;;;35.08;20.88;;;;;;;1.13;73.45;98564.50;5107486;28;20051;-73
2022/11/19 04:52:09;;;;;;;36.95;22.05;;;;;;;0.82;73.27;98509.75;5091511;28;20071;-72
2022/11/19 04:54:36;;;;;;;37.15;23.50;;;;;;;1.45;73.43;98628.81;5108042;28;20150;-72
2022/11/19 04:57:04;;;;;;;36.95;20.85;;;;;;;1.44;73.27;98627.09;5109565;28;20036;-73
2022/11/19 04:59:31;;;;;;;33.67;22.70;;;;;;;0.65;73.24;98488.53;5108860;28;20063;-72
2022/11/19 05:01:58;;;;;;;35.80;22.60;;;;;;;1.43;73.21;98625.38;5109445;28;20063;-73
2022/11/19 05:04:24;;;;;;;34.63;22.23;;;;;;;1.43;73.23;98631.47;5107468;28;20082;-72
2022/11/19 05:06:51;;;;;;;32.78;20.70;;;;;;;1.22;73.16;98585.97;5108071;28;20172;-73
2022/11/19 05:09:18;;;;;;;31.38;20.00;;;;;;;1.42;73.16;98626.28;5108425;28;20292;-73
2022/11/19 05:11:45;;;;;;;30.90;21.90;;;;;;;1.42;73.28;98632.38;5107772;28;20044;-73
2022/11/19 05:14:13;;;;;;;35.40;22.70;;;;;;;1.42;73.15;98627.13;5109434;28;20093;-73
2022/11/19 05:16:40;;;;;;;31.55;20.92;;;;;;;1.40;72.75;98623.72;5108846;28;20231;-72
2022/11/19 05:19:07;;;;;;;34.90;20.98;;;;;;;0.72;72.67;98505.72;5108679;28;20036;-72
2022/11/19 05:21:33;;;;;;;31.67;20.42;;;;;;;-1.12;72.62;98473.09;5108879;28;20071;-72
2022/11/19 05:24:00;;;;;;;32.65;20.92;;;;;;;1.37;73.08;98629.03;5108598;28;20054;-73
2022/11/19 05:26:27;;;;;;;34.90;21.30;;;;;;;1.36;72.88;98634.31;5108256;28;20044;-72
2022/11/19 05:28:54;;;;;;;34.30;21.25;;;;;;;0.24;72.57;98444.50;5107505;28;20123;-72
2022/11/19 05:31:22;;;;;;;31.08;19.35;;;;;;;0.06;72.28;98418.09;5107269;28;20051;-72
2022/11/19 05:33:49;;;;;;;32.38;20.02;;;;;;;1.32;72.61;98649.19;5090509;28;20043;-73
2022/11/19 05:36:16;;;;;;;34.72;20.02;;;;;;;1.32;72.59;98667.47;5107283;28;20077;-73
2022/11/19 05:38:43;;;;;;;32.10;20.45;;;;;;;1.31;72.52;98647.50;5107352;28;20064;-73
2022/11/19 05:41:10;;;;;;;28.65;18.15;;;;;;;0.42;72.36;98510.91;5106182;28;20043;-72
2022/11/19 05:43:37;;;;;;;31.48;19.95;;;;;;;-1.98;72.13;98138.19;5106982;28;20040;-72
2022/11/19 05:46:03;;;;;;;29.42;19.30;;;;;;;0.31;72.21;98489.50;5107324;28;20318;-72
2022/11/19 05:48:31;;;;;;;31.20;20.05;;;;;;;1.29;72.19;98653.66;5108818;28;20204;-73
2022/11/19 05:50:59;;;;;;;31.73;20.30;;;;;;;1.27;72.19;98656.31;5108061;28;20059;-72
2022/11/19 05:53:27;;;;;;;27.08;18.85;;;;;;;-1.30;72.16;98239.53;5108427;28;20044;-72
2022/11/19 05:55:54;;;;;;;30.92;18.73;;;;;;;-0.54;72.10;98361.59;5091269;28;20039;-72
2022/11/19 05:58:20;;;;;;;29.45;19.30;;;;;;;1.24;72.13;98670.31;5107097;28;20098;-72
2022/11/19 06:00:48;;;;;;;32.00;18.73;;;;;;;1.25;72.22;98685.06;5107738;28;20116;-72
2022/11/19 06:03:16;;;;;;;29.35;18.08;;;;;;;-4.00;71.80;97806.72;5107564;28;20040;-72
2022/11/19 06:05:44;;;;;;;27.85;18.83;;;;;;;0.11;72.17;98526.50;5107269;28;20047;-72
2022/11/19 06:08:11;;;;;;;26.77;17.70;;;;;;;1.23;72.17;98733.00;5107817;28;20047;-72
2022/11/19 06:10:38;;;;;;;28.20;18.38;;;;;;;1.17;72.18;98662.69;5107428;28;20082;-72
2022/11/19 06:13:05;;;;;;;26.95;17.42;;;;;;;1.22;72.05;98690.38;5108153;28;20052;-73
2022/11/19 06:15:32;;;;;;;27.33;17.75;;;;;;;-2.25;71.32;98094.72;5090765;28;20039;-72
2022/11/19 06:17:59;;;;;;;26.95;18.42;;;;;;;-3.72;71.77;97882.03;5108107;28;20054;-72
2022/11/19 06:20:25;;;;;;;31.13;19.30;;;;;;;0.66;72.08;98720.59;5107295;28;20036;-72
2022/11/19 06:22:55;;;;;;;28.80;17.27;;;;;;;1.20;72.17;98707.84;5107703;28;20040;-72
2022/11/19 06:25:22;;;;;;;27.00;18.38;;;;;;;-1.52;71.94;98256.56;5107302;28;20231;-73
2022/11/19 06:27:50;;;;;;;28.90;18.88;;;;;;;1.20;72.06;98718.28;5107859;28;20050;-73
2022/11/19 06:30:17;;;;;;;29.50;18.40;;;;;;;1.18;71.94;98725.28;5107127;28;20215;-72
2022/11/19 06:32:44;;;;;;;28.20;16.80;;;;;;;-0.62;71.74;98423.38;5107987;28;20299;-73
2022/11/19 06:35:12;;;;;;;23.38;15.88;;;;;;;-2.08;71.59;98183.44;5108114;28;20055;-73
2022/11/19 06:37:39;;;;;;;25.02;17.33;;;;;;;-0.45;71.42;98512.31;5107328;28;20090;-72
2022/11/19 06:40:09;;;;;;;27.42;18.33;;;;;;;0.45;71.05;98616.84;5108070;28;20044;-72
2022/11/19 06:42:36;;;;;;;24.02;16.00;;;;;;;-0.39;71.40;98489.59;5107153;28;20304;-72
2022/11/19 06:45:03;;;;;;;28.48;18.08;;;;;;;1.13;71.60;98721.09;5106927;28;20100;-72
2022/11/19 06:47:30;;;;;;;24.48;16.08;;;;;;;1.14;71.36;98725.41;5090544;28;20040;-72
2022/11/19 06:49:57;;;;;;;24.77;16.98;;;;;;;1.13;71.31;98731.53;5107081;28;20052;-72
2022/11/19 06:52:24;;;;;;;27.25;18.13;;;;;;;-0.78;70.64;98508.78;5107574;28;20052;-72
2022/11/19 06:54:51;;;;;;;25.48;16.38;;;;;;;-2.58;70.95;98107.59;5108161;28;20055;-72
2022/11/19 06:57:20;;;;;;;26.95;16.00;;;;;;;-3.88;70.74;97943.63;5106905;28;20069;-72
2022/11/19 06:59:46;;;;;;;26.98;18.40;;;;;;;1.13;70.93;98737.63;5107153;28;20042;-71
2022/11/19 07:02:14;;;;;;;25.83;15.60;;;;;;;-0.21;70.84;98521.28;5090171;28;20047;-72
2022/11/19 07:04:44;;;;;;;26.88;16.85;;;;;;;1.14;70.99;98756.75;5106709;28;20052;-72
2022/11/19 07:07:10;;;;;;;27.15;17.65;;;;;;;1.13;71.10;98761.09;5107607;28;20047;-72
2022/11/19 07:09:38;;;;;;;28.83;17.50;;;;;;;1.17;71.00;98757.50;5090849;28;20054;-71
2022/11/19 07:12:06;;;;;;;24.23;15.40;;;;;;;-0.22;70.81;98532.59;5107494;28;20052;-72
2022/11/19 07:14:34;;;;;;;26.75;17.05;;;;;;;1.18;70.89;98758.38;5108198;28;20054;-72
2022/11/19 07:17:01;;;;;;;22.83;15.30;;;;;;;0.02;70.46;98596.25;5111018;28;20036;-72
2022/11/19 07:19:28;;;;;;;23.42;15.75;;;;;;;0.60;70.74;98679.03;5110844;28;20032;-72
2022/11/19 07:21:55;;;;;;;24.83;15.38;;;;;;;0.46;70.74;98679.38;5111015;28;20322;-72
2022/11/19 07:24:22;;;;;;;25.92;17.10;;;;;;;1.20;70.86;98772.22;5110858;28;20089;-72
2022/11/19 07:26:49;;;;;;;23.92;15.48;;;;;;;1.19;70.81;98792.25;5110945;28;20043;-72
2022/11/19 07:29:17;;;;;;;25.35;15.98;;;;;;;-0.64;70.77;98479.81;5110162;28;20058;-72
2022/11/19 07:31:49;;;;;;;23.83;15.50;;;;;;;1.18;70.70;98793.16;5110415;28;20040;-72
2022/11/19 07:34:17;;;;;;;22.70;15.15;;;;;;;0.58;70.55;98712.97;5111252;28;20373;-73
2022/11/19 07:36:45;;;;;;;24.70;16.30;;;;;;;-0.02;70.27;98600.66;5111128;28;20046;-72
2022/11/19 07:39:15;;;;;;;24.27;15.43;;;;;;;0.53;70.13;98680.06;5111097;28;20040;-72
2022/11/19 07:44:26;;;;;;;24.27;15.20;;;;;;;1.20;70.47;98795.72;5109908;28;20040;-72
2022/11/19 07:46:55;;;;;;;22.17;15.73;;;;;;;-0.80;70.22;98494.94;5109870;28;20089;-72
2022/11/19 07:49:23;;;;;;;25.17;15.65;;;;;;;-1.45;70.41;98624.56;5110343;28;20044;-72
2022/11/19 07:51:50;;;;;;;21.73;15.70;;;;;;;-3.06;70.02;98259.84;5110038;28;20081;-72
2022/11/19 07:54:17;;;;;;;21.35;14.02;;;;;;;0.25;70.18;98643.41;5109576;28;20040;-72
2022/11/19 07:56:44;;;;;;;19.60;12.75;;;;;;;1.28;70.32;98840.75;5110296;28;20089;-72
2022/11/19 07:59:12;;;;;;;17.05;11.60;;;;;;;-1.87;69.57;98328.34;5109926;28;20036;-72
2022/11/19 08:01:39;;;;;;;16.58;12.00;;;;;;;-6.19;68.90;97557.00;5109908;28;20050;-72
2022/11/19 08:04:07;;;;;;;18.25;12.00;;;;;;;1.15;69.35;98813.25;5093686;28;20046;-72
2022/11/19 08:06:34;;;;;;;18.02;12.63;;;;;;;1.15;69.48;98813.25;5109456;28;20040;-72
2022/11/19 08:09:02;;;;;;;17.98;13.15;;;;;;;1.16;69.54;98820.19;5110657;28;20048;-72
2022/11/19 08:11:29;;;;;;;17.77;12.43;;;;;;;-4.81;69.52;97812.69;5110511;28;20040;-72
2022/11/19 08:13:59;;;;;;;20.23;13.32;;;;;;;1.21;69.20;98823.53;5110213;28;20036;-73
2022/11/19 08:19:13;;;;;;;19.27;11.65;;;;;;;1.18;69.16;98827.09;5110367;28;20210;-72
2022/11/19 08:21:42;;;;;;;20.30;12.60;;;;;;;1.18;68.93;98834.91;5110142;28;20056;-72
2022/11/19 08:24:10;;;;;;;19.27;13.18;;;;;;;1.01;68.92;98803.19;5109836;28;20308;-72
2022/11/19 08:26:37;;;;;;;21.55;13.98;;;;;;;1.14;69.07;98824.59;5109452;28;20274;-72
2022/11/19 08:29:05;;;;;;;19.85;12.93;;;;;;;1.12;69.14;98837.69;5108665;28;20047;-72
2022/11/19 08:31:32;;;;;;;20.35;12.48;;;;;;;1.15;69.09;98828.91;5108930;28;20089;-72
2022/11/19 08:34:01;;;;;;;21.40;13.85;;;;;;;-0.11;68.98;98621.72;5092528;28;20055;-72
2022/11/19 08:36:29;;;;;;;22.30;14.25;;;;;;;-0.52;69.36;98555.00;5108596;28;20304;-72
2022/11/19 08:38:57;;;;;;;20.65;14.82;;;;;;;1.20;69.33;98840.97;5109050;28;20383;-72
2022/11/19 08:44:09;;;;;;;21.13;14.45;;;;;;;1.19;69.03;98831.41;5094201;28;20051;-72
2022/11/19 08:46:37;;;;;;;23.10;15.10;;;;;;;1.22;68.81;98853.97;5109281;28;20222;-72
2022/11/19 08:49:05;;;;;;;23.35;16.35;;;;;;;1.29;69.12;98823.34;5107759;28;20207;-72
2022/11/19 08:51:33;;;;;;;20.35;14.27;;;;;;;1.29;68.71;98816.38;5107961;28;20056;-72
2022/11/19 08:54:00;;;;;;;21.95;14.55;;;;;;;1.32;68.77;98813.69;5109244;28;20040;-72
2022/11/19 08:56:27;;;;;;;20.98;14.00;;;;;;;0.77;68.82;98729.00;5108775;28;20129;-73
2022/11/19 08:58:54;;;;;;;25.85;15.25;;;;;;;1.36;68.84;98836.19;5107758;28;20051;-72
2022/11/19 09:01:21;;;;;;;18.73;13.65;;;;;;;1.39;68.97;98838.72;5108080;28;20040;-73
2022/11/19 09:03:48;;;;;;;21.08;13.18;;;;;;;0.71;68.89;98730.91;5090942;28;20044;-72
2022/11/19 09:06:17;;;;;;;21.83;13.88;;;;;;;-3.13;68.54;98229.72;5108433;28;20070;-72
2022/11/19 09:08:46;;;;;;;22.33;14.48;;;;;;;1.13;68.87;98815.91;5108738;28;20040;-73
2022/11/19 09:11:15;;;;;;;21.83;14.02;;;;;;;1.39;68.98;98867.44;5107760;28;20047;-72
2022/11/19 09:13:42;;;;;;;19.13;13.57;;;;;;;0.14;68.67;98656.72;5108782;28;20079;-73
2022/11/19 09:16:10;;;;;;;19.35;13.23;;;;;;;1.42;69.02;98875.19;5091696;28;20044;-73
2022/11/19 09:18:39;;;;;;;21.05;13.60;;;;;;;1.42;68.61;98875.19;5091957;28;20221;-72
2022/11/19 09:21:07;;;;;;;19.85;13.00;;;;;;;1.42;68.43;98890.88;5091114;28;20309;-72
2022/11/19 09:23:35;;;;;;;20.90;13.75;;;;;;;1.41;68.03;98883.06;5107585;28;20043;-73
2022/11/19 09:26:05;;;;;;;20.65;14.57;;;;;;;1.40;67.58;98870.91;5108781;28;20051;-71
2022/11/19 09:28:33;;;;;;;20.40;13.60;;;;;;;0.85;68.11;98836.63;5108099;28;20203;-72
2022/11/19 09:31:06;;;;;;;22.70;13.98;;;;;;;1.41;67.94;98889.16;5107511;28;20207;-72
2022/11/19 09:33:35;;;;;;;16.88;11.88;;;;;;;0.54;68.04;98745.22;5107632;28;20048;-72
2022/11/19 09:36:02;;;;;;;20.38;13.38;;;;;;;-0.50;67.59;98564.50;5107741;28;20040;-72
2022/11/19 09:38:30;;;;;;;19.27;13.43;;;;;;;-1.16;67.62;98437.66;5108463;28;20032;-72
2022/11/19 09:41:02;;;;;;;21.10;14.20;;;;;;;1.42;67.79;98893.47;5107285;28;20039;-72
2022/11/19 09:43:44;;;;;;;20.00;13.68;;;;;;;0.37;66.24;98683.97;5108609;28;20048;-71
2022/11/19 09:46:21;;;;;;;22.45;14.32;;;;;;;1.42;66.30;98869.97;5108041;28;20064;-72
2022/11/19 09:48:50;;;;;;;24.23;15.23;;;;;;;-2.96;67.35;98243.22;5108100;28;20043;-73
2022/11/19 09:51:21;;;;;;;19.73;14.27;;;;;;;1.42;67.34;98861.28;5106858;28;20051;-72
2022/11/19 09:53:52;;;;;;;19.58;14.10;;;;;;;1.44;67.18;98865.56;5107101;28;20123;-72
2022/11/19 09:56:27;;;;;;;19.23;14.35;;;;;;;1.40;64.63;98870.91;5107159;28;20055;-72
2022/11/19 09:58:57;;;;;;;17.90;11.95;;;;;;;-1.52;65.71;98573.59;5107205;28;20203;-72
2022/11/19 10:01:26;;;;;;;18.40;13.00;;;;;;;1.34;66.72;98858.03;5108242;28;20066;-73
2022/11/19 10:03:54;;;;;;;21.27;13.52;;;;;;;1.30;66.56;98859.84;5107212;28;20050;-72
2022/11/19 10:06:29;;;;;;;20.48;13.98;;;;;;;1.32;65.67;98859.81;5107598;28;20280;-72
2022/11/19 10:09:23;;;;;;;20.27;13.60;;;;;;;-0.58;64.84;98576.81;5107478;28;20047;-73
2022/11/19 10:12:02;;;;;;;27.48;14.07;;;;;;;-0.70;66.29;98514.66;5107096;28;20038;-73
2022/11/19 10:14:47;;;;;;;21.50;13.63;;;;;;;0.32;65.32;98678.88;5107265;28;20066;-73
2022/11/19 10:17:26;;;;;;;21.42;13.77;;;;;;;0.76;66.12;98745.53;5107821;28;20089;-72
2022/11/19 10:20:06;;;;;;;18.50;12.40;;;;;;;0.88;65.73;98784.38;5124417;28;20052;-72
2022/11/19 10:22:38;;;;;;;18.73;12.85;;;;;;;1.37;64.89;98856.19;5107416;28;20094;-72
2022/11/19 10:25:16;;;;;;;19.17;13.50;;;;;;;-1.17;64.64;98425.53;5107085;28;20089;-72
2022/11/19 10:27:49;;;;;;;19.95;13.05;;;;;;;0.73;66.33;98735.19;5107724;28;20061;-72
2022/11/19 10:30:20;;;;;;;20.77;12.82;;;;;;;0.98;66.08;98771.09;5107536;28;20111;-72
2022/11/19 10:32:55;;;;;;;22.17;15.68;;;;;;;-0.84;66.23;98694.47;5107699;28;20062;-72
2022/11/19 10:35:26;;;;;;;19.85;13.48;;;;;;;1.14;66.49;98796.75;5107359;28;20050;-72
2022/11/19 10:37:58;;;;;;;19.05;12.38;;;;;;;1.51;66.57;98858.44;5106581;28;20204;-72
2022/11/19 10:40:28;;;;;;;18.80;12.70;;;;;;;1.51;66.64;98874.97;5106295;28;20044;-72
2022/11/19 10:43:01;;;;;;;20.15;12.88;;;;;;;0.58;66.47;98705.13;5106325;28;20042;-73
2022/11/19 10:45:30;;;;;;;20.08;13.52;;;;;;;-1.29;66.86;98385.97;5107868;28;20044;-72
2022/11/19 10:48:05;;;;;;;22.17;13.98;;;;;;;1.50;67.10;98946.38;5107482;28;20066;-73
2022/11/19 10:50:35;;;;;;;;;;;;;;;1.47;66.12;98846.34;5109197;28;20082;-73
2022/11/19 10:53:12;;;;;;;20.90;13.80;;;;;;;1.47;66.92;98843.75;5111349;28;20014;-73
2022/11/19 10:55:42;;;;;;;16.42;11.70;;;;;;;1.49;67.56;98845.41;5111240;28;20260;-72
2022/11/19 10:58:16;;;;;;;19.42;13.98;;;;;;;1.53;67.19;98835.75;5110148;28;20040;-72
2022/11/19 11:00:44;;;;;;;21.15;13.65;;;;;;;0.28;67.29;98622.50;5109912;28;20036;-72
2022/11/19 11:03:21;;;;;;;23.27;16.30;;;;;;;-0.25;66.16;98528.31;5111333;28;20044;-73
2022/11/19 11:06:00;;;;;;;23.65;15.48;;;;;;;1.58;65.68;98836.47;5110975;28;20047;-73
2022/11/19 11:08:27;;;;;;;20.13;12.85;;;;;;;-0.00;67.04;98587.59;5109467;28;20046;-73
2022/11/19 11:10:55;;;;;;;18.27;13.18;;;;;;;1.54;66.76;98833.09;5110364;28;20036;-72
2022/11/19 11:16:40;;;;;;;17.58;12.18;;;;;;;1.58;65.71;98829.50;5110107;28;20069;-73
2022/11/19 11:19:13;;;;;;;17.98;11.93;;;;;;;1.58;64.77;98824.28;5110777;28;20028;-73
2022/11/19 11:21:42;;;;;;;14.98;10.90;;;;;;;0.91;65.67;98737.31;5110395;28;20043;-75
2022/11/19 11:24:12;;;;;;;16.33;11.73;;;;;;;0.96;65.25;98707.66;5110747;28;20257;-73
2022/11/19 11:26:40;;;;;;;13.40;9.75;;;;;;;0.91;64.94;98703.41;5110102;28;20326;-71
2022/11/19 11:29:25;;;;;;;13.73;10.30;;;;;;;1.58;62.60;98826.88;5110706;28;20288;-72
2022/11/19 11:31:53;;;;;;;13.32;9.18;;;;;;;1.60;64.34;98816.44;5110403;28;20055;-72
2022/11/19 11:34:31;;;;;;;15.98;10.10;;;;;;;1.61;62.46;98839.03;5110475;28;20234;-72
2022/11/19 11:37:00;;;;;;;15.27;12.40;;;;;;;1.63;63.50;98837.25;5108835;28;20044;-72
2022/11/19 11:39:30;;;;;;;14.43;11.45;;;;;;;-0.13;63.46;98538.41;5110452;28;20052;-72
2022/11/19 11:41:59;;;;;;;12.45;10.25;;;;;;;1.63;63.38;98831.16;5110455;28;20040;-72
2022/11/19 11:44:29;;;;;;;18.70;10.57;;;;;;;1.57;63.02;98838.22;5110325;28;20046;-72
2022/11/19 11:47:00;;;;;;;14.55;10.88;;;;;;;-0.05;62.89;98605.94;5109063;28;20249;-72
2022/11/19 11:49:31;;;;;;;15.02;9.68;;;;;;;1.45;63.25;98802.00;5108856;28;20047;-72
2022/11/19 11:52:05;;;;;;;15.52;9.98;;;;;;;0.73;62.50;98724.75;5109061;28;20048;-72
2022/11/19 11:54:33;;;;;;;15.20;10.65;;;;;;;1.59;63.68;98835.59;5109052;28;20276;-72
2022/11/19 11:57:16;;;;;;;16.20;11.00;;;;;;;1.61;60.83;98865.16;5126573;28;20044;-72